sensor_id;sensor_type;location;lat;lon;timestamp;pressure;altitude;pressure_sealevel;temperature;humidity
80986;BME280;70451;51.226;6.412;2023-07-31T00:00:10;100505.19;;;15.59;100.00
80986;BME280;70451;51.226;6.412;2023-07-31T00:02:26;100505.19;;;15.59;100.00
80986;BME280;70451;51.226;6.412;2023-07-31T00:04:41;100508.84;;;15.56;100.00
80986;BME280;70451;51.226;6.412;2023-07-31T00:06:56;100503.59;;;15.56;100.00
80986;BME280;70451;51.226;6.412;2023-07-31T00:09:12;100509.69;;;15.57;100.00
80986;BME280;70451;51.226;6.412;2023-07-31T00:11:27;100513.06;;;15.59;100.00
80986;BME280;70451;51.226;6.412;2023-07-31T00:13:42;100506.84;;;15.60;100.00
80986;BME280;70451;51.226;6.412;2023-07-31T00:15:59;100510.44;;;15.59;100.00
80986;BME280;70451;51.226;6.412;2023-07-31T00:18:15;100511.38;;;15.58;100.00
80986;BME280;70451;51.226;6.412;2023-07-31T00:20:30;100509.69;;;15.57;100.00
80986;BME280;70451;51.226;6.412;2023-07-31T00:22:45;100502.66;;;15.57;100.00
80986;BME280;70451;51.226;6.412;2023-07-31T00:25:01;100496.44;;;15.58;100.00
80986;BME280;70451;51.226;6.412;2023-07-31T00:27:16;100505.19;;;15.59;100.00
80986;BME280;70451;51.226;6.412;2023-07-31T00:29:31;100496.69;;;15.55;100.00
80986;BME280;70451;51.226;6.412;2023-07-31T00:31:46;100499.06;;;15.58;100.00
80986;BME280;70451;51.226;6.412;2023-07-31T00:34:02;100489.50;;;15.57;100.00
80986;BME280;70451;51.226;6.412;2023-07-31T00:36:17;100491.63;;;15.52;100.00
80986;BME280;70451;51.226;6.412;2023-07-31T00:38:33;100493.81;;;15.58;100.00
80986;BME280;70451;51.226;6.412;2023-07-31T00:40:48;100492.97;;;15.58;100.00
80986;BME280;70451;51.226;6.412;2023-07-31T00:43:03;100499.06;;;15.58;100.00
80986;BME280;70451;51.226;6.412;2023-07-31T00:45:19;100498.59;;;15.53;100.00
80986;BME280;70451;51.226;6.412;2023-07-31T00:47:35;100495.13;;;15.53;100.00
80986;BME280;70451;51.226;6.412;2023-07-31T00:49:51;100496.69;;;15.55;100.00
80986;BME280;70451;51.226;6.412;2023-07-31T00:52:07;100488.81;;;15.55;100.00
80986;BME280;70451;51.226;6.412;2023-07-31T00:54:23;100496.69;;;15.55;100.00
80986;BME280;70451;51.226;6.412;2023-07-31T00:56:40;100495.72;;;15.56;100.00
80986;BME280;70451;51.226;6.412;2023-07-31T00:58:56;100497.63;;;15.54;100.00
80986;BME280;70451;51.226;6.412;2023-07-31T01:01:11;100478.28;;;15.55;100.00
80986;BME280;70451;51.226;6.412;2023-07-31T01:03:26;100486.47;;;15.51;100.00
80986;BME280;70451;51.226;6.412;2023-07-31T01:10:35;100479.34;;;15.53;100.00
80986;BME280;70451;51.226;6.412;2023-07-31T01:12:53;100477.75;;;15.50;100.00
80986;BME280;70451;51.226;6.412;2023-07-31T01:15:09;100475.00;;;15.52;100.00
80986;BME280;70451;51.226;6.412;2023-07-31T01:17:27;100475.22;;;15.49;100.00
80986;BME280;70451;51.226;6.412;2023-07-31T01:19:42;100465.44;;;15.51;100.00
80986;BME280;70451;51.226;6.412;2023-07-31T01:27:21;100477.34;;;15.44;100.00
80986;BME280;70451;51.226;6.412;2023-07-31T01:29:47;100477.97;;;15.47;100.00
80986;BME280;70451;51.226;6.412;2023-07-31T01:32:05;100477.72;;;15.39;100.00
80986;BME280;70451;51.226;6.412;2023-07-31T01:34:21;100475.66;;;15.43;100.00
80986;BME280;70451;51.226;6.412;2023-07-31T01:36:37;100475.91;;;15.40;100.00
80986;BME280;70451;51.226;6.412;2023-07-31T01:38:57;100473.19;;;15.41;100.00
80986;BME280;70451;51.226;6.412;2023-07-31T01:41:13;100470.56;;;15.41;100.00
80986;BME280;70451;51.226;6.412;2023-07-31T01:43:28;100474.13;;;15.40;100.00
80986;BME280;70451;51.226;6.412;2023-07-31T01:45:44;100472.44;;;15.39;100.00
80986;BME280;70451;51.226;6.412;2023-07-31T01:47:59;100461.31;;;15.36;100.00
80986;BME280;70451;51.226;6.412;2023-07-31T01:50:14;100460.84;;;15.42;100.00
80986;BME280;70451;51.226;6.412;2023-07-31T01:52:30;100457.53;;;15.40;100.00
80986;BME280;70451;51.226;6.412;2023-07-31T01:54:45;100458.56;;;15.37;100.00
80986;BME280;70451;51.226;6.412;2023-07-31T01:57:00;100447.84;;;15.40;100.00
80986;BME280;70451;51.226;6.412;2023-07-31T01:59:15;100446.72;;;15.32;100.00
80986;BME280;70451;51.226;6.412;2023-07-31T02:01:31;100441.00;;;15.38;100.00
80986;BME280;70451;51.226;6.412;2023-07-31T02:03:46;100448.31;;;15.34;100.00
80986;BME280;70451;51.226;6.412;2023-07-31T02:06:01;100442.81;;;15.37;100.00
80986;BME280;70451;51.226;6.412;2023-07-31T02:08:17;100448.31;;;15.34;100.00
80986;BME280;70451;51.226;6.412;2023-07-31T02:10:32;100444.47;;;15.38;100.00
80986;BME280;70451;51.226;6.412;2023-07-31T02:12:47;100446.38;;;15.36;100.00
80986;BME280;70451;51.226;6.412;2023-07-31T02:15:03;100448.78;;;15.39;100.00
80986;BME280;70451;51.226;6.412;2023-07-31T02:17:18;100439.97;;;15.40;100.00
80986;BME280;70451;51.226;6.412;2023-07-31T02:19:34;100444.03;;;15.44;100.00
80986;BME280;70451;51.226;6.412;2023-07-31T02:21:49;100444.03;;;15.44;100.00
80986;BME280;70451;51.226;6.412;2023-07-31T02:24:04;100445.91;;;15.42;100.00
80986;BME280;70451;51.226;6.412;2023-07-31T02:26:19;100445.47;;;15.48;100.00
80986;BME280;70451;51.226;6.412;2023-07-31T02:28:35;100442.13;;;15.46;100.00
80986;BME280;70451;51.226;6.412;2023-07-31T02:30:50;100439.50;;;15.46;100.00
80986;BME280;70451;51.226;6.412;2023-07-31T02:33:07;100444.84;;;15.45;100.00
80986;BME280;70451;51.226;6.412;2023-07-31T02:35:22;100430.66;;;15.47;100.00
80986;BME280;70451;51.226;6.412;2023-07-31T02:37:37;100439.25;;;15.49;100.00
80986;BME280;70451;51.226;6.412;2023-07-31T02:39:54;100433.88;;;15.51;100.00
80986;BME280;70451;51.226;6.412;2023-07-31T02:42:09;100428.50;;;15.52;100.00
80986;BME280;70451;51.226;6.412;2023-07-31T02:44:24;100427.50;;;15.55;100.00
80986;BME280;70451;51.226;6.412;2023-07-31T02:46:40;100430.97;;;15.55;100.00
80986;BME280;70451;51.226;6.412;2023-07-31T02:48:55;100424.84;;;15.55;100.00
80986;BME280;70451;51.226;6.412;2023-07-31T02:51:11;100424.84;;;15.55;100.00
80986;BME280;70451;51.226;6.412;2023-07-31T02:53:26;100410.50;;;15.59;100.00
80986;BME280;70451;51.226;6.412;2023-07-31T02:55:41;100410.50;;;15.59;100.00
80986;BME280;70451;51.226;6.412;2023-07-31T02:57:56;100417.44;;;15.60;100.00
80986;BME280;70451;51.226;6.412;2023-07-31T03:00:13;100411.25;;;15.61;100.00
80986;BME280;70451;51.226;6.412;2023-07-31T03:02:28;100416.25;;;15.64;100.00
80986;BME280;70451;51.226;6.412;2023-07-31T03:04:44;100411.13;;;15.62;100.00
80986;BME280;70451;51.226;6.412;2023-07-31T03:06:59;100409.94;;;15.66;100.00
80986;BME280;70451;51.226;6.412;2023-07-31T03:09:14;100404.91;;;15.63;100.00
80986;BME280;70451;51.226;6.412;2023-07-31T03:11:30;100403.09;;;15.64;100.00
80986;BME280;70451;51.226;6.412;2023-07-31T03:13:45;100406.56;;;15.64;100.00
80986;BME280;70451;51.226;6.412;2023-07-31T03:16:00;100406.72;;;15.63;100.00
80986;BME280;70451;51.226;6.412;2023-07-31T03:18:16;100401.47;;;15.63;100.00
80986;BME280;70451;51.226;6.412;2023-07-31T03:20:31;100414.34;;;15.66;100.00
80986;BME280;70451;51.226;6.412;2023-07-31T03:22:46;100407.19;;;15.68;100.00
80986;BME280;70451;51.226;6.412;2023-07-31T03:25:02;100402.03;;;15.66;100.00
80986;BME280;70451;51.226;6.412;2023-07-31T03:27:18;100411.50;;;15.69;100.00
80986;BME280;70451;51.226;6.412;2023-07-31T03:29:33;100411.50;;;15.69;100.00
80986;BME280;70451;51.226;6.412;2023-07-31T03:31:48;100407.66;;;15.73;100.00
80986;BME280;70451;51.226;6.412;2023-07-31T03:34:04;100398.94;;;15.73;99.84
80986;BME280;70451;51.226;6.412;2023-07-31T03:36:19;100395.47;;;15.72;99.92
80986;BME280;70451;51.226;6.412;2023-07-31T03:38:35;100395.59;;;15.71;99.88
80986;BME280;70451;51.226;6.412;2023-07-31T03:40:50;100400.72;;;15.72;100.00
80986;BME280;70451;51.226;6.412;2023-07-31T03:43:05;100389.25;;;15.73;99.79
80986;BME280;70451;51.226;6.412;2023-07-31T03:45:20;100383.88;;;15.75;99.77
80986;BME280;70451;51.226;6.412;2023-07-31T03:47:36;100387.59;;;15.72;99.81
80986;BME280;70451;51.226;6.412;2023-07-31T03:49:51;100389.25;;;15.73;100.00
80986;BME280;70451;51.226;6.412;2023-07-31T03:52:06;100389.25;;;15.73;100.00
80986;BME280;70451;51.226;6.412;2023-07-31T03:54:22;100392.84;;;15.72;100.00
80986;BME280;70451;51.226;6.412;2023-07-31T03:56:37;100389.16;;;15.75;100.00
80986;BME280;70451;51.226;6.412;2023-07-31T03:58:53;100386.53;;;15.75;100.00
80986;BME280;70451;51.226;6.412;2023-07-31T04:01:09;100383.06;;;15.74;100.00
80986;BME280;70451;51.226;6.412;2023-07-31T04:03:24;100376.72;;;15.77;100.00
80986;BME280;70451;51.226;6.412;2023-07-31T04:05:39;100374.22;;;15.75;100.00
80986;BME280;70451;51.226;6.412;2023-07-31T04:07:55;100368.00;;;15.76;100.00
80986;BME280;70451;51.226;6.412;2023-07-31T04:10:10;100365.22;;;15.78;100.00
80986;BME280;70451;51.226;6.412;2023-07-31T04:12:26;100366.91;;;15.79;100.00
80986;BME280;70451;51.226;6.412;2023-07-31T04:14:41;100362.38;;;15.81;100.00
80986;BME280;70451;51.226;6.412;2023-07-31T04:16:56;100354.69;;;15.78;100.00
80986;BME280;70451;51.226;6.412;2023-07-31T04:19:12;100356.38;;;15.79;100.00
80986;BME280;70451;51.226;6.412;2023-07-31T04:21:31;100360.69;;;15.80;100.00
80986;BME280;70451;51.226;6.412;2023-07-31T04:23:46;100359.00;;;15.79;100.00
80986;BME280;70451;51.226;6.412;2023-07-31T04:26:02;100355.22;;;15.83;100.00
80986;BME280;70451;51.226;6.412;2023-07-31T04:28:17;100353.53;;;15.82;100.00
80986;BME280;70451;51.226;6.412;2023-07-31T04:30:32;100350.63;;;15.85;100.00
80986;BME280;70451;51.226;6.412;2023-07-31T04:32:47;100339.06;;;15.87;100.00
80986;BME280;70451;51.226;6.412;2023-07-31T04:35:03;100349.69;;;15.86;100.00
80986;BME280;70451;51.226;6.412;2023-07-31T04:37:18;100349.00;;;15.84;100.00
80986;BME280;70451;51.226;6.412;2023-07-31T04:39:34;100342.28;;;15.91;100.00
80986;BME280;70451;51.226;6.412;2023-07-31T04:41:49;100349.94;;;15.94;100.00
80986;BME280;70451;51.226;6.412;2023-07-31T04:44:04;100343.59;;;15.96;100.00
80986;BME280;70451;51.226;6.412;2023-07-31T04:46:20;100332.81;;;15.99;100.00
80986;BME280;70451;51.226;6.412;2023-07-31T04:48:35;100324.09;;;15.99;100.00
80986;BME280;70451;51.226;6.412;2023-07-31T04:50:50;100325.53;;;16.03;99.58
80986;BME280;70451;51.226;6.412;2023-07-31T04:53:06;100323.50;;;16.06;99.65
80986;BME280;70451;51.226;6.412;2023-07-31T04:55:21;100325.16;;;16.08;99.23
80986;BME280;70451;51.226;6.412;2023-07-31T04:57:36;100320.41;;;16.13;99.23
80986;BME280;70451;51.226;6.412;2023-07-31T04:59:52;100322.03;;;16.14;99.38
80986;BME280;70451;51.226;6.412;2023-07-31T05:02:08;100320.50;;;16.11;99.11
80986;BME280;70451;51.226;6.412;2023-07-31T05:04:23;100320.25;;;16.14;99.06
80986;BME280;70451;51.226;6.412;2023-07-31T05:06:38;100318.47;;;16.15;98.95
80986;BME280;70451;51.226;6.412;2023-07-31T05:08:54;100315.72;;;16.16;98.97
80986;BME280;70451;51.226;6.412;2023-07-31T05:11:09;100314.88;;;16.16;98.82
80986;BME280;70451;51.226;6.412;2023-07-31T05:13:24;100301.22;;;16.22;98.80
80986;BME280;70451;51.226;6.412;2023-07-31T05:15:41;100303.34;;;16.28;98.29
80986;BME280;70451;51.226;6.412;2023-07-31T05:17:56;100302.16;;;16.32;97.73
80986;BME280;70451;51.226;6.412;2023-07-31T05:20:12;100297.75;;;16.32;97.74
80986;BME280;70451;51.226;6.412;2023-07-31T05:22:27;100291.38;;;16.35;97.60
80986;BME280;70451;51.226;6.412;2023-07-31T05:24:43;100292.34;;;16.34;97.39
80986;BME280;70451;51.226;6.412;2023-07-31T05:26:58;100294.84;;;16.35;97.64
80986;BME280;70451;51.226;6.412;2023-07-31T05:29:13;100279.88;;;16.36;97.57
80986;BME280;70451;51.226;6.412;2023-07-31T05:31:29;100286.72;;;16.38;97.21
80986;BME280;70451;51.226;6.412;2023-07-31T05:33:44;100283.22;;;16.38;97.42
80986;BME280;70451;51.226;6.412;2023-07-31T05:35:59;100285.75;;;16.39;97.21
80986;BME280;70451;51.226;6.412;2023-07-31T05:38:14;100285.03;;;16.37;97.23
80986;BME280;70451;51.226;6.412;2023-07-31T05:40:32;100278.81;;;16.38;97.07
80986;BME280;70451;51.226;6.412;2023-07-31T05:42:48;100286.72;;;16.38;97.35
80986;BME280;70451;51.226;6.412;2023-07-31T05:45:04;100277.25;;;16.36;97.48
80986;BME280;70451;51.226;6.412;2023-07-31T05:47:20;100279.31;;;16.32;97.72
80986;BME280;70451;51.226;6.412;2023-07-31T05:49:35;100274.16;;;16.31;97.71
80986;BME280;70451;51.226;6.412;2023-07-31T05:51:50;100284.94;;;16.28;98.20
80986;BME280;70451;51.226;6.412;2023-07-31T05:54:06;100282.78;;;16.22;98.55
80986;BME280;70451;51.226;6.412;2023-07-31T05:56:21;100285.91;;;16.16;99.12
80986;BME280;70451;51.226;6.412;2023-07-31T05:58:36;100277.31;;;16.14;99.51
80986;BME280;70451;51.226;6.412;2023-07-31T06:00:52;100276.00;;;16.08;99.84
80986;BME280;70451;51.226;6.412;2023-07-31T06:03:07;100267.38;;;16.06;99.94
80986;BME280;70451;51.226;6.412;2023-07-31T06:05:22;100268.09;;;16.08;100.00
80986;BME280;70451;51.226;6.412;2023-07-31T06:07:38;100269.78;;;16.09;100.00
80986;BME280;70451;51.226;6.412;2023-07-31T06:09:53;100280.19;;;16.11;100.00
80986;BME280;70451;51.226;6.412;2023-07-31T06:12:09;100270.50;;;16.11;100.00
80986;BME280;70451;51.226;6.412;2023-07-31T06:14:25;100267.75;;;16.13;100.00
80986;BME280;70451;51.226;6.412;2023-07-31T06:16:40;100272.19;;;16.12;100.00
80986;BME280;70451;51.226;6.412;2023-07-31T06:18:56;100266.19;;;16.10;100.00
80986;BME280;70451;51.226;6.412;2023-07-31T06:21:11;100273.38;;;16.08;100.00
80986;BME280;70451;51.226;6.412;2023-07-31T06:23:26;100273.03;;;16.13;100.00
80986;BME280;70451;51.226;6.412;2023-07-31T06:25:42;100268.09;;;16.19;100.00
80986;BME280;70451;51.226;6.412;2023-07-31T06:27:57;100277.78;;;16.19;100.00
80986;BME280;70451;51.226;6.412;2023-07-31T06:30:12;100283.91;;;16.19;100.00
80986;BME280;70451;51.226;6.412;2023-07-31T06:32:28;100282.22;;;16.18;100.00
80986;BME280;70451;51.226;6.412;2023-07-31T06:34:43;100280.28;;;16.20;100.00
80986;BME280;70451;51.226;6.412;2023-07-31T06:36:58;100282.22;;;16.18;100.00
80986;BME280;70451;51.226;6.412;2023-07-31T06:39:14;100284.72;;;16.20;100.00
80986;BME280;70451;51.226;6.412;2023-07-31T06:41:29;100287.72;;;16.15;100.00
80986;BME280;70451;51.226;6.412;2023-07-31T06:43:44;100285.69;;;16.19;100.00
80986;BME280;70451;51.226;6.412;2023-07-31T06:46:05;100280.66;;;16.16;100.00
80986;BME280;70451;51.226;6.412;2023-07-31T06:48:20;100282.00;;;16.10;100.00
80986;BME280;70451;51.226;6.412;2023-07-31T06:50:36;100277.56;;;16.11;100.00
80986;BME280;70451;51.226;6.412;2023-07-31T06:52:52;100274.59;;;16.04;100.00
80986;BME280;70451;51.226;6.412;2023-07-31T06:55:18;100270.41;;;16.01;100.00
80986;BME280;70451;51.226;6.412;2023-07-31T06:57:33;100261.56;;;16.02;100.00
80986;BME280;70451;51.226;6.412;2023-07-31T06:59:49;100273.88;;;16.02;100.00
80986;BME280;70451;51.226;6.412;2023-07-31T07:02:04;100273.53;;;15.95;100.00
80986;BME280;70451;51.226;6.412;2023-07-31T07:04:20;100259.16;;;15.99;100.00
80986;BME280;70451;51.226;6.412;2023-07-31T07:06:35;100262.88;;;15.97;100.00
80986;BME280;70451;51.226;6.412;2023-07-31T07:08:50;100263.47;;;16.00;100.00
80986;BME280;70451;51.226;6.412;2023-07-31T07:11:06;100265.13;;;16.01;100.00
80986;BME280;70451;51.226;6.412;2023-07-31T07:13:22;100258.47;;;15.97;100.00
80986;BME280;70451;51.226;6.412;2023-07-31T07:15:37;100261.09;;;15.97;100.00
80986;BME280;70451;51.226;6.412;2023-07-31T07:17:52;100258.91;;;16.02;100.00
80986;BME280;70451;51.226;6.412;2023-07-31T07:20:08;100259.53;;;15.95;100.00
80986;BME280;70451;51.226;6.412;2023-07-31T07:22:24;100269.22;;;16.05;100.00
80986;BME280;70451;51.226;6.412;2023-07-31T07:24:39;100267.66;;;16.03;100.00
80986;BME280;70451;51.226;6.412;2023-07-31T07:26:54;100263.56;;;15.99;100.00
80986;BME280;70451;51.226;6.412;2023-07-31T07:29:10;100260.72;;;16.02;100.00
80986;BME280;70451;51.226;6.412;2023-07-31T07:31:26;100260.59;;;16.03;100.00
80986;BME280;70451;51.226;6.412;2023-07-31T07:33:41;100263.47;;;16.00;100.00
80986;BME280;70451;51.226;6.412;2023-07-31T07:36:00;100259.41;;;15.96;100.00
80986;BME280;70451;51.226;6.412;2023-07-31T07:38:15;100261.09;;;15.97;100.00
80986;BME280;70451;51.226;6.412;2023-07-31T07:40:31;100256.19;;;15.93;100.00
80986;BME280;70451;51.226;6.412;2023-07-31T07:42:46;100254.03;;;15.98;100.00
80986;BME280;70451;51.226;6.412;2023-07-31T07:45:02;100252.69;;;16.03;100.00
80986;BME280;70451;51.226;6.412;2023-07-31T07:47:18;100243.97;;;16.03;100.00
80986;BME280;70451;51.226;6.412;2023-07-31T07:49:34;100249.34;;;16.13;100.00
80986;BME280;70451;51.226;6.412;2023-07-31T07:51:49;100245.22;;;16.31;100.00
80986;BME280;70451;51.226;6.412;2023-07-31T07:54:06;100244.13;;;16.33;100.00
80986;BME280;70451;51.226;6.412;2023-07-31T07:56:21;100232.19;;;16.50;100.00
80986;BME280;70451;51.226;6.412;2023-07-31T07:58:37;100226.81;;;16.52;100.00
80986;BME280;70451;51.226;6.412;2023-07-31T08:00:52;100238.25;;;16.41;100.00
80986;BME280;70451;51.226;6.412;2023-07-31T08:03:08;100228.91;;;16.37;100.00
80986;BME280;70451;51.226;6.412;2023-07-31T08:05:24;100226.53;;;16.34;100.00
80986;BME280;70451;51.226;6.412;2023-07-31T08:07:40;100231.19;;;16.30;100.00
80986;BME280;70451;51.226;6.412;2023-07-31T08:09:55;100234.97;;;16.17;100.00
80986;BME280;70451;51.226;6.412;2023-07-31T08:12:11;100231.72;;;16.13;100.00
80986;BME280;70451;51.226;6.412;2023-07-31T08:14:26;100217.75;;;16.13;100.00
80986;BME280;70451;51.226;6.412;2023-07-31T08:16:42;100218.34;;;16.16;100.00
80986;BME280;70451;51.226;6.412;2023-07-31T08:18:57;100217.81;;;16.22;100.00
80986;BME280;70451;51.226;6.412;2023-07-31T08:21:12;100203.66;;;16.34;100.00
80986;BME280;70451;51.226;6.412;2023-07-31T08:23:27;100195.97;;;16.42;100.00
80986;BME280;70451;51.226;6.412;2023-07-31T08:25:43;100204.41;;;16.57;99.87
80986;BME280;70451;51.226;6.412;2023-07-31T08:27:58;100203.84;;;16.54;99.66
80986;BME280;70451;51.226;6.412;2023-07-31T08:30:13;100193.81;;;16.48;99.52
80986;BME280;70451;51.226;6.412;2023-07-31T08:32:29;100206.00;;;16.49;99.12
80986;BME280;70451;51.226;6.412;2023-07-31T08:34:44;100208.00;;;16.56;98.99
80986;BME280;70451;51.226;6.412;2023-07-31T08:36:59;100206.19;;;16.68;99.19
80986;BME280;70451;51.226;6.412;2023-07-31T08:39:14;100207.38;;;16.64;99.10
80986;BME280;70451;51.226;6.412;2023-07-31T08:41:30;100205.22;;;16.69;99.08
80986;BME280;70451;51.226;6.412;2023-07-31T08:43:46;100204.91;;;16.62;99.07
80986;BME280;70451;51.226;6.412;2023-07-31T08:46:01;100212.19;;;16.59;99.21
80986;BME280;70451;51.226;6.412;2023-07-31T08:48:17;100206.06;;;16.58;99.38
80986;BME280;70451;51.226;6.412;2023-07-31T08:50:34;100209.53;;;16.59;99.83
80986;BME280;70451;51.226;6.412;2023-07-31T08:52:51;100210.63;;;16.56;99.89
80986;BME280;70451;51.226;6.412;2023-07-31T08:55:06;100211.00;;;16.52;100.00
80986;BME280;70451;51.226;6.412;2023-07-31T08:57:22;100215.72;;;16.48;100.00
80986;BME280;70451;51.226;6.412;2023-07-31T08:59:40;100216.59;;;16.37;100.00
80986;BME280;70451;51.226;6.412;2023-07-31T09:01:57;100210.56;;;16.47;100.00
80986;BME280;70451;51.226;6.412;2023-07-31T09:04:16;100211.31;;;16.37;100.00
80986;BME280;70451;51.226;6.412;2023-07-31T09:06:34;100216.41;;;16.50;100.00
80986;BME280;70451;51.226;6.412;2023-07-31T09:08:49;100220.31;;;16.56;100.00
80986;BME280;70451;51.226;6.412;2023-07-31T09:11:05;100208.22;;;16.64;100.00
80986;BME280;70451;51.226;6.412;2023-07-31T09:13:20;100208.09;;;16.66;100.00
80986;BME280;70451;51.226;6.412;2023-07-31T09:15:36;100212.81;;;16.51;100.00
80986;BME280;70451;51.226;6.412;2023-07-31T09:18:01;100215.56;;;16.61;100.00
80986;BME280;70451;51.226;6.412;2023-07-31T09:20:18;100210.28;;;16.61;100.00
80986;BME280;70451;51.226;6.412;2023-07-31T09:22:35;100204.50;;;16.67;100.00
80986;BME280;70451;51.226;6.412;2023-07-31T09:24:50;100207.84;;;16.69;100.00
80986;BME280;70451;51.226;6.412;2023-07-31T09:27:05;100199.84;;;16.59;100.00
80986;BME280;70451;51.226;6.412;2023-07-31T09:29:21;100207.03;;;16.57;100.00
80986;BME280;70451;51.226;6.412;2023-07-31T09:33:56;100207.81;;;16.48;100.00
80986;BME280;70451;51.226;6.412;2023-07-31T09:36:11;100205.41;;;16.45;100.00
80986;BME280;70451;51.226;6.412;2023-07-31T09:38:26;100209.84;;;16.44;100.00
80986;BME280;70451;51.226;6.412;2023-07-31T09:40:47;100196.06;;;16.52;100.00
80986;BME280;70451;51.226;6.412;2023-07-31T09:43:07;100197.13;;;16.50;100.00
80986;BME280;70451;51.226;6.412;2023-07-31T09:45:23;100190.91;;;16.51;100.00
80986;BME280;70451;51.226;6.412;2023-07-31T09:47:39;100195.94;;;16.54;100.00
80986;BME280;70451;51.226;6.412;2023-07-31T09:49:54;100190.34;;;16.47;100.00
80986;BME280;70451;51.226;6.412;2023-07-31T09:52:12;100186.47;;;16.51;100.00
80986;BME280;70451;51.226;6.412;2023-07-31T09:54:28;100192.50;;;16.42;100.00
80986;BME280;70451;51.226;6.412;2023-07-31T09:58:59;100191.75;;;16.51;100.00
80986;BME280;70451;51.226;6.412;2023-07-31T10:01:14;100187.56;;;16.49;100.00
80986;BME280;70451;51.226;6.412;2023-07-31T10:03:31;100193.41;;;16.52;100.00
80986;BME280;70451;51.226;6.412;2023-07-31T10:05:51;100188.47;;;16.59;100.00
80986;BME280;70451;51.226;6.412;2023-07-31T10:08:09;100184.84;;;16.71;100.00
80986;BME280;70451;51.226;6.412;2023-07-31T10:10:25;100183.19;;;16.91;100.00
80986;BME280;70451;51.226;6.412;2023-07-31T10:12:41;100183.75;;;16.94;100.00
80986;BME280;70451;51.226;6.412;2023-07-31T10:14:59;100184.81;;;16.92;100.00
80986;BME280;70451;51.226;6.412;2023-07-31T10:17:15;100179.50;;;17.03;100.00
80986;BME280;70451;51.226;6.412;2023-07-31T10:19:32;100181.72;;;17.07;100.00
80986;BME280;70451;51.226;6.412;2023-07-31T10:21:48;100184.16;;;16.99;99.81
80986;BME280;70451;51.226;6.412;2023-07-31T10:24:04;100174.03;;;16.95;99.54
80986;BME280;70451;51.226;6.412;2023-07-31T10:26:23;100180.00;;;16.97;99.13
80986;BME280;70451;51.226;6.412;2023-07-31T10:28:38;100169.50;;;17.06;99.92
80986;BME280;70451;51.226;6.412;2023-07-31T10:30:54;100180.56;;;17.00;100.00
80986;BME280;70451;51.226;6.412;2023-07-31T10:33:10;100179.38;;;17.04;99.96
80986;BME280;70451;51.226;6.412;2023-07-31T10:35:27;100182.88;;;17.14;100.00
80986;BME280;70451;51.226;6.412;2023-07-31T10:37:43;100174.66;;;17.08;99.84
80986;BME280;70451;51.226;6.412;2023-07-31T10:40:06;100182.97;;;17.03;99.73
80986;BME280;70451;51.226;6.412;2023-07-31T10:42:32;100184.41;;;17.17;100.00
80986;BME280;70451;51.226;6.412;2023-07-31T10:44:47;100170.28;;;17.18;99.85
80986;BME280;70451;51.226;6.412;2023-07-31T10:47:03;100177.88;;;17.11;99.17
80986;BME280;70451;51.226;6.412;2023-07-31T10:49:21;100176.19;;;17.10;99.29
80986;BME280;70451;51.226;6.412;2023-07-31T10:51:36;100174.41;;;17.11;99.37
80986;BME280;70451;51.226;6.412;2023-07-31T10:54:10;100177.88;;;17.11;99.36
80986;BME280;70451;51.226;6.412;2023-07-31T10:56:25;100176.75;;;17.14;99.11
80986;BME280;70451;51.226;6.412;2023-07-31T10:58:43;100168.16;;;17.12;99.27
80986;BME280;70451;51.226;6.412;2023-07-31T11:01:03;100166.63;;;17.09;98.90
80986;BME280;70451;51.226;6.412;2023-07-31T11:03:19;100162.78;;;17.23;99.21
80986;BME280;70451;51.226;6.412;2023-07-31T11:07:59;100159.50;;;17.31;98.44
80986;BME280;70451;51.226;6.412;2023-07-31T11:10:22;100170.75;;;17.33;98.76
80986;BME280;70451;51.226;6.412;2023-07-31T11:12:38;100165.91;;;17.38;98.64
80986;BME280;70451;51.226;6.412;2023-07-31T11:14:57;100172.94;;;17.28;98.65
80986;BME280;70451;51.226;6.412;2023-07-31T11:17:12;100179.84;;;17.19;98.63
80986;BME280;70451;51.226;6.412;2023-07-31T11:19:28;100174.88;;;17.26;98.83
80986;BME280;70451;51.226;6.412;2023-07-31T11:21:43;100171.41;;;17.25;99.14
80986;BME280;70451;51.226;6.412;2023-07-31T11:23:59;100164.28;;;17.16;98.95
80986;BME280;70451;51.226;6.412;2023-07-31T11:26:15;100165.13;;;17.16;98.80
80986;BME280;70451;51.226;6.412;2023-07-31T11:28:34;100153.78;;;17.26;98.79
80986;BME280;70451;51.226;6.412;2023-07-31T11:30:50;100161.13;;;17.22;98.73
80986;BME280;70451;51.226;6.412;2023-07-31T11:33:06;100158.66;;;17.30;98.92
80986;BME280;70451;51.226;6.412;2023-07-31T11:35:21;100161.69;;;17.26;98.41
80986;BME280;70451;51.226;6.412;2023-07-31T11:37:41;100152.66;;;17.28;98.80
80986;BME280;70451;51.226;6.412;2023-07-31T11:40:00;100162.38;;;17.28;98.69
80986;BME280;70451;51.226;6.412;2023-07-31T11:42:16;100158.78;;;17.29;98.92
80986;BME280;70451;51.226;6.412;2023-07-31T11:44:39;100154.75;;;17.25;98.29
80986;BME280;70451;51.226;6.412;2023-07-31T11:46:56;100151.28;;;17.24;98.09
80986;BME280;70451;51.226;6.412;2023-07-31T11:49:11;100155.72;;;17.23;98.39
80986;BME280;70451;51.226;6.412;2023-07-31T11:51:28;100159.91;;;17.26;98.72
80986;BME280;70451;51.226;6.412;2023-07-31T11:53:49;100159.06;;;17.26;98.77
80986;BME280;70451;51.226;6.412;2023-07-31T11:56:07;100151.00;;;17.27;98.49
80986;BME280;70451;51.226;6.412;2023-07-31T11:58:23;100153.22;;;17.22;98.52
80986;BME280;70451;51.226;6.412;2023-07-31T12:00:39;100142.94;;;17.19;98.84